createdAt,value
2019-06-20T19:32:54.222Z,8.15
2019-06-20T19:35:40.857Z,8.38
2019-06-20T19:38:27.255Z,8.18
2019-06-20T19:41:13.658Z,7.55
2019-06-20T19:44:00.357Z,6.90
2019-06-20T19:46:51.096Z,6.42
2019-06-20T19:49:41.019Z,6.05
2019-06-20T19:52:40.585Z,6.00
2019-06-20T19:55:30.945Z,6.40
2019-06-20T19:58:16.956Z,6.25
2019-06-20T20:01:06.409Z,5.72
2019-06-20T20:03:52.782Z,6.05
2019-06-20T20:06:39.552Z,6.12
2019-06-20T20:09:25.792Z,5.50
2019-06-20T20:12:12.454Z,5.72
2019-06-20T20:14:58.852Z,5.87
2019-06-20T20:17:45.708Z,5.58
2019-06-20T20:20:33.010Z,5.20
2019-06-20T20:23:19.602Z,5.37
2019-06-20T20:26:08.892Z,5.55
2019-06-20T20:29:04.274Z,5.70
2019-06-20T20:31:46.469Z,5.22
2019-06-20T20:34:37.622Z,5.47
2019-06-20T20:37:25.412Z,4.92
2019-06-20T20:40:12.707Z,5.08
2019-06-20T20:42:59.953Z,5.22
2019-06-20T20:45:46.455Z,4.80
2019-06-20T20:48:32.908Z,4.25
2019-06-20T20:51:20.463Z,4.30
2019-06-20T20:54:06.744Z,4.20
2019-06-20T20:56:57.021Z,4.08
2019-06-20T20:59:53.048Z,4.12
2019-06-20T21:02:39.040Z,3.72
2019-06-20T21:05:27.151Z,3.70
2019-06-20T21:08:13.466Z,3.60
2019-06-20T21:11:00.279Z,3.98
2019-06-20T21:13:46.638Z,3.60
2019-06-20T21:16:33.032Z,3.58
2019-06-20T21:19:20.760Z,3.70
2019-06-20T21:22:07.920Z,3.87
2019-06-20T21:24:54.832Z,3.65
2019-06-20T21:27:42.130Z,3.75
2019-06-20T21:30:31.329Z,4.00
2019-06-20T21:33:17.111Z,3.42
2019-06-20T21:36:08.277Z,3.60
2019-06-20T21:38:51.734Z,3.42
2019-06-20T21:41:38.271Z,4.17
2019-06-20T21:44:28.574Z,3.70
2019-06-20T21:47:19.614Z,3.85
2019-06-20T21:50:06.017Z,3.95
2019-06-20T21:52:52.360Z,3.90
2019-06-20T21:55:38.654Z,3.72
2019-06-20T21:58:26.176Z,2.50
2019-06-20T22:01:13.183Z,3.25
2019-06-20T22:04:00.035Z,3.17
2019-06-20T22:06:51.324Z,3.50
2019-06-20T22:09:39.499Z,3.37
2019-06-20T22:12:28.176Z,3.45
2019-06-20T22:15:21.683Z,3.27
2019-06-20T22:18:04.079Z,3.30
2019-06-20T22:20:50.357Z,3.25
2019-06-20T22:23:38.840Z,3.35
2019-06-20T22:26:27.458Z,3.40
2019-06-20T22:29:13.771Z,3.47
2019-06-20T22:32:00.493Z,3.27
2019-06-20T22:34:46.818Z,3.58
2019-06-20T22:37:33.423Z,3.40
2019-06-20T22:40:20.988Z,3.42
2019-06-20T22:43:09.082Z,3.10
2019-06-20T22:45:55.177Z,3.35
2019-06-20T22:48:41.775Z,3.30
2019-06-20T22:51:28.239Z,2.77
2019-06-20T22:54:14.776Z,3.08
2019-06-20T22:57:01.223Z,3.00
2019-06-20T22:59:47.751Z,3.15
2019-06-20T23:02:34.303Z,3.15
2019-06-20T23:05:22.589Z,3.10
2019-06-20T23:08:08.981Z,3.08
2019-06-20T23:10:55.336Z,3.37
2019-06-20T23:13:41.675Z,4.10
2019-06-20T23:16:28.381Z,4.17
2019-06-20T23:19:14.645Z,4.47
2019-06-20T23:22:06.736Z,4.20
2019-06-20T23:24:55.255Z,4.30
2019-06-20T23:27:41.941Z,4.47
2019-06-20T23:30:28.131Z,4.58
2019-06-20T23:33:14.827Z,4.75
2019-06-20T23:36:02.498Z,5.03
2019-06-20T23:38:51.129Z,5.12
2019-06-20T23:41:37.393Z,5.55
2019-06-20T23:44:25.021Z,5.65
2019-06-20T23:47:11.154Z,5.53
2019-06-20T23:49:59.267Z,4.58
2019-06-20T23:52:48.535Z,3.98
2019-06-20T23:55:35.110Z,4.70
2019-06-20T23:58:21.507Z,4.30
